createdAt,value
2022-08-01T00:02:35.593Z,21.81
2022-08-01T00:05:05.796Z,21.75
2022-08-01T00:07:35.912Z,21.80
2022-08-01T00:10:17.325Z,21.76
2022-08-01T00:13:11.928Z,21.76
2022-08-01T00:15:53.863Z,21.69
2022-08-01T00:18:27.312Z,21.71
2022-08-01T00:20:58.599Z,21.67
2022-08-01T00:23:26.020Z,21.70
2022-08-01T00:25:56.216Z,21.65
2022-08-01T00:28:23.514Z,21.65
2022-08-01T00:30:54.109Z,21.63
2022-08-01T00:33:21.411Z,21.48
2022-08-01T00:35:48.689Z,21.62
2022-08-01T00:38:15.910Z,21.76
2022-08-01T00:40:45.711Z,21.82
2022-08-01T00:43:12.927Z,21.59
2022-08-01T00:45:40.140Z,21.55
2022-08-01T00:48:10.396Z,21.54
2022-08-01T00:50:37.971Z,21.54
2022-08-01T00:53:11.052Z,21.65
2022-08-01T00:55:47.500Z,21.63
2022-08-01T00:58:15.052Z,21.74
2022-08-01T01:00:52.743Z,21.70
2022-08-01T01:03:26.340Z,21.64
2022-08-01T01:06:24.297Z,21.67
2022-08-01T01:09:07.272Z,21.56
2022-08-01T01:11:55.096Z,21.57
2022-08-01T01:14:36.100Z,21.59
2022-08-01T01:17:07.643Z,21.55
2022-08-01T01:19:40.485Z,21.59
2022-08-01T01:22:13.830Z,21.52
2022-08-01T01:24:57.514Z,21.43
2022-08-01T01:27:43.457Z,21.41
2022-08-01T01:30:14.277Z,21.42
2022-08-01T01:32:47.485Z,21.35
2022-08-01T01:35:22.168Z,21.36
2022-08-01T01:37:50.975Z,21.40
2022-08-01T01:40:24.886Z,21.30
2022-08-01T01:42:53.669Z,21.25
2022-08-01T01:45:24.891Z,21.31
2022-08-01T01:47:53.816Z,21.14
2022-08-01T01:50:27.282Z,20.98
2022-08-01T01:52:58.558Z,21.24
2022-08-01T01:55:26.965Z,21.23
2022-08-01T01:57:58.358Z,21.11
2022-08-01T02:00:26.299Z,21.07
2022-08-01T02:02:55.093Z,21.20
2022-08-01T02:05:23.257Z,21.06
2022-08-01T02:07:51.692Z,21.06
2022-08-01T02:10:28.576Z,21.04
2022-08-01T02:12:58.381Z,20.92
2022-08-01T02:15:26.641Z,21.10
2022-08-01T02:17:54.442Z,22.20
2022-08-01T02:20:21.855Z,23.02
2022-08-01T02:22:58.946Z,23.38
2022-08-01T02:25:39.916Z,23.49
2022-08-01T02:28:32.237Z,23.74
2022-08-01T02:31:05.600Z,23.82
2022-08-01T02:33:38.746Z,23.84
2022-08-01T02:36:31.361Z,23.71
2022-08-01T02:38:58.016Z,23.60
2022-08-01T02:41:27.084Z,23.65
2022-08-01T02:43:57.724Z,23.40
2022-08-01T02:46:26.965Z,23.33
2022-08-01T02:48:56.587Z,23.55
2022-08-01T02:51:24.992Z,23.70
2022-08-01T02:53:55.640Z,23.61
2022-08-01T02:56:26.244Z,23.70
2022-08-01T02:58:53.878Z,23.50
2022-08-01T03:01:27.093Z,23.62
2022-08-01T03:03:59.827Z,23.67
2022-08-01T03:06:30.891Z,23.53
2022-08-01T03:09:04.838Z,23.54
2022-08-01T03:11:32.897Z,23.38
2022-08-01T03:14:06.054Z,23.28
2022-08-01T03:16:38.362Z,23.25
2022-08-01T03:19:06.362Z,23.25
2022-08-01T03:21:34.534Z,23.32
2022-08-01T03:24:04.410Z,23.51
2022-08-01T03:26:34.989Z,23.32
2022-08-01T03:29:07.484Z,23.34
2022-08-01T03:31:38.977Z,23.48
2022-08-01T03:34:09.582Z,23.48
2022-08-01T03:36:43.804Z,23.63
2022-08-01T03:39:13.534Z,23.54
2022-08-01T03:41:42.774Z,23.36
2022-08-01T03:44:14.468Z,22.75
2022-08-01T03:46:53.100Z,22.63
2022-08-01T03:49:36.662Z,22.70
2022-08-01T03:52:06.036Z,22.41
2022-08-01T03:54:41.741Z,22.49
2022-08-01T03:57:34.898Z,22.53
2022-08-01T04:00:03.224Z,22.48
2022-08-01T04:02:36.814Z,22.38
2022-08-01T04:05:06.296Z,22.23
2022-08-01T04:07:37.421Z,22.14
2022-08-01T04:10:06.677Z,22.12
2022-08-01T04:12:36.062Z,22.57
2022-08-01T04:15:09.160Z,22.74
2022-08-01T04:17:42.714Z,22.85
2022-08-01T04:20:15.756Z,22.85
2022-08-01T04:22:53.781Z,22.92
2022-08-01T04:25:27.765Z,22.78
2022-08-01T04:28:05.477Z,22.80
2022-08-01T04:30:37.589Z,22.77
2022-08-01T04:33:12.881Z,22.65
2022-08-01T04:36:03.277Z,22.62
2022-08-01T04:38:38.782Z,22.77
2022-08-01T04:41:17.778Z,22.63
2022-08-01T04:43:45.753Z,22.80
2022-08-01T04:46:20.465Z,22.72
2022-08-01T04:48:55.617Z,22.73
2022-08-01T04:51:22.972Z,22.71
2022-08-01T04:53:53.481Z,22.82
2022-08-01T04:56:23.197Z,22.93
2022-08-01T04:58:50.523Z,22.93
2022-08-01T05:01:21.310Z,23.09
2022-08-01T05:03:52.208Z,23.13
2022-08-01T05:06:23.286Z,23.23
2022-08-01T05:08:54.267Z,23.03
2022-08-01T05:11:27.649Z,23.02
2022-08-01T05:14:01.967Z,23.11
2022-08-01T05:16:30.286Z,23.05
2022-08-01T05:19:01.931Z,23.02
2022-08-01T05:21:32.449Z,23.03
2022-08-01T05:24:05.512Z,23.18
2022-08-01T05:26:39.511Z,23.42
2022-08-01T05:29:07.798Z,23.38
2022-08-01T05:31:38.236Z,23.63
2022-08-01T05:34:14.819Z,23.40
2022-08-01T05:36:45.926Z,23.30
2022-08-01T05:39:13.604Z,23.31
2022-08-01T05:41:44.181Z,23.48
2022-08-01T05:44:17.251Z,23.41
2022-08-01T05:46:49.180Z,23.37
2022-08-01T05:49:19.638Z,23.34
2022-08-01T05:51:52.575Z,23.40
2022-08-01T05:54:23.093Z,23.36
2022-08-01T05:56:55.891Z,23.60
2022-08-01T05:59:26.056Z,23.89
2022-08-01T06:01:59.169Z,23.84
2022-08-01T06:04:26.961Z,23.97
2022-08-01T06:06:54.663Z,24.12
2022-08-01T06:09:28.457Z,24.26
2022-08-01T06:12:01.310Z,24.49
2022-08-01T06:14:28.687Z,24.70
2022-08-01T06:16:55.985Z,24.98
2022-08-01T06:19:29.513Z,24.88
2022-08-01T06:21:57.721Z,25.19
2022-08-01T06:24:28.540Z,25.23
2022-08-01T06:26:58.787Z,25.47
2022-08-01T06:29:26.090Z,25.53
2022-08-01T06:31:59.545Z,25.79
2022-08-01T06:34:32.423Z,25.64
2022-08-01T06:37:05.746Z,25.47
2022-08-01T06:39:36.939Z,25.78
2022-08-01T06:42:04.467Z,26.03
2022-08-01T06:44:31.952Z,26.26
2022-08-01T06:47:06.093Z,26.44
2022-08-01T06:49:37.952Z,26.54
2022-08-01T06:52:09.576Z,26.61
2022-08-01T06:54:37.620Z,26.80
2022-08-01T06:57:07.939Z,26.94
2022-08-01T06:59:35.287Z,27.06
2022-08-01T07:02:02.966Z,26.81
2022-08-01T07:04:33.364Z,27.05
2022-08-01T07:07:03.462Z,27.35
2022-08-01T07:09:37.442Z,27.56
2022-08-01T07:12:08.265Z,27.59
2022-08-01T07:14:35.908Z,27.69
2022-08-01T07:17:05.872Z,27.44
2022-08-01T07:19:39.299Z,27.61
2022-08-01T07:22:10.333Z,27.52
2022-08-01T07:24:45.876Z,27.62
2022-08-01T07:27:24.409Z,27.68
2022-08-01T07:30:00.250Z,27.60
2022-08-01T07:32:36.146Z,27.69
2022-08-01T07:35:16.330Z,27.99
2022-08-01T07:37:53.640Z,28.13
2022-08-01T07:40:31.548Z,28.30
2022-08-01T07:43:05.719Z,28.20
2022-08-01T07:45:39.588Z,28.34
2022-08-01T07:48:14.018Z,28.00
2022-08-01T07:50:47.744Z,28.20
2022-08-01T07:53:18.281Z,27.95
2022-08-01T07:55:45.540Z,28.16
2022-08-01T07:58:14.932Z,28.13
2022-08-01T08:00:46.587Z,28.17
2022-08-01T08:03:23.712Z,28.25
2022-08-01T08:05:59.771Z,28.44
2022-08-01T08:08:27.907Z,28.52
2022-08-01T08:10:55.166Z,28.52
2022-08-01T08:13:22.435Z,28.56
2022-08-01T08:15:53.248Z,28.60
2022-08-01T08:18:20.630Z,28.19
2022-08-01T08:20:49.638Z,28.38
2022-08-01T08:23:17.635Z,28.32
2022-08-01T08:26:04.945Z,28.37
2022-08-01T08:28:32.447Z,28.41
2022-08-01T08:31:03.626Z,28.28
2022-08-01T08:33:30.882Z,28.08
2022-08-01T08:35:58.472Z,28.35
2022-08-01T08:38:29.879Z,28.57
2022-08-01T08:41:04.283Z,28.76
2022-08-01T08:43:36.026Z,28.58
2022-08-01T08:46:03.420Z,28.36
2022-08-01T08:48:34.580Z,28.89
2022-08-01T08:51:04.734Z,29.03
2022-08-01T08:53:35.036Z,28.85
2022-08-01T08:56:07.811Z,28.74
2022-08-01T08:58:36.546Z,28.89
2022-08-01T09:01:09.977Z,29.05
2022-08-01T09:03:39.972Z,29.08
2022-08-01T09:06:13.121Z,29.11
2022-08-01T09:08:43.694Z,29.23
2022-08-01T09:11:18.860Z,29.35
2022-08-01T09:14:10.053Z,29.13
2022-08-01T09:16:45.218Z,29.01
2022-08-01T09:19:40.588Z,29.40
2022-08-01T09:22:13.928Z,28.90
2022-08-01T09:24:58.411Z,29.10
2022-08-01T09:27:28.617Z,28.74
2022-08-01T09:30:07.727Z,29.17
2022-08-01T09:32:37.847Z,29.45
2022-08-01T09:35:46.699Z,29.55
2022-08-01T09:38:25.969Z,29.47
2022-08-01T09:40:59.604Z,29.13
2022-08-01T09:43:28.710Z,29.08
2022-08-01T09:46:02.741Z,29.00
2022-08-01T09:48:40.293Z,29.15
2022-08-01T09:51:12.194Z,29.17
2022-08-01T09:54:00.144Z,29.25
2022-08-01T09:56:37.091Z,29.46
2022-08-01T09:59:12.523Z,29.57
2022-08-01T10:01:47.285Z,29.68
2022-08-01T10:04:25.411Z,29.79
2022-08-01T10:07:04.648Z,30.00
2022-08-01T10:09:40.843Z,29.88
2022-08-01T10:12:16.617Z,29.88
2022-08-01T10:14:50.252Z,29.76
2022-08-01T10:17:22.710Z,29.98
2022-08-01T10:19:54.387Z,29.90
2022-08-01T10:22:28.545Z,30.02
2022-08-01T10:25:00.088Z,29.89
2022-08-01T10:27:38.467Z,29.98
2022-08-01T10:30:15.438Z,29.63
2022-08-01T10:32:51.096Z,29.45
2022-08-01T10:35:38.043Z,29.66
2022-08-01T10:38:17.271Z,29.63
2022-08-01T10:40:51.389Z,29.74
2022-08-01T10:43:21.694Z,29.96
2022-08-01T10:45:51.128Z,29.85
2022-08-01T10:48:27.145Z,29.62
2022-08-01T10:51:18.059Z,29.34
2022-08-01T10:53:54.136Z,29.42
2022-08-01T10:56:39.477Z,29.24
2022-08-01T10:59:11.815Z,29.66
2022-08-01T11:01:44.981Z,29.49
2022-08-01T11:04:17.975Z,29.51
2022-08-01T11:07:18.407Z,29.74
2022-08-01T11:09:51.830Z,29.49
2022-08-01T11:12:41.426Z,29.76
2022-08-01T11:15:16.479Z,29.32
2022-08-01T11:18:04.501Z,29.63
2022-08-01T11:20:41.802Z,29.82
2022-08-01T11:23:09.535Z,29.90
2022-08-01T11:26:05.918Z,29.93
2022-08-01T11:28:40.656Z,29.92
2022-08-01T11:31:25.860Z,29.90
2022-08-01T11:34:03.601Z,29.86
2022-08-01T11:37:00.397Z,29.73
2022-08-01T11:39:41.459Z,29.58
2022-08-01T11:42:21.645Z,29.33
2022-08-01T11:45:02.265Z,29.16
2022-08-01T11:47:49.945Z,29.51
2022-08-01T11:50:32.405Z,29.64
2022-08-01T11:53:11.514Z,29.58
2022-08-01T11:55:52.279Z,29.63
2022-08-01T11:58:30.663Z,29.58
2022-08-01T12:01:19.010Z,29.49
2022-08-01T12:04:06.653Z,29.67
2022-08-01T12:06:39.465Z,29.60
2022-08-01T12:09:20.819Z,29.36
2022-08-01T12:17:58.186Z,29.79
2022-08-01T12:20:38.137Z,29.66
2022-08-01T12:23:20.372Z,29.50
2022-08-01T12:25:56.812Z,29.52
2022-08-01T12:28:31.109Z,29.57
2022-08-01T12:30:58.476Z,29.46
2022-08-01T12:33:31.605Z,29.58
2022-08-01T12:35:59.078Z,29.52
2022-08-01T12:38:26.624Z,29.85
2022-08-01T12:40:54.830Z,29.84
2022-08-01T12:43:27.803Z,29.55
2022-08-01T12:45:58.940Z,29.57
2022-08-01T12:48:26.957Z,29.47
2022-08-01T12:50:55.025Z,29.13
2022-08-01T12:53:25.529Z,29.18
2022-08-01T12:55:58.733Z,29.25
2022-08-01T12:58:34.258Z,29.05
2022-08-01T13:01:24.959Z,29.05
2022-08-01T13:04:04.305Z,29.26
2022-08-01T13:06:32.039Z,29.40
2022-08-01T13:09:10.578Z,29.18
2022-08-01T13:12:03.658Z,29.09
2022-08-01T13:14:33.955Z,29.13
2022-08-01T13:17:01.433Z,29.24
2022-08-01T13:19:47.314Z,29.25
2022-08-01T13:22:14.855Z,29.52
2022-08-01T13:24:42.480Z,29.49
2022-08-01T13:27:21.680Z,29.26
2022-08-01T13:29:48.973Z,29.02
2022-08-01T13:32:28.690Z,29.21
2022-08-01T13:35:05.857Z,29.22
2022-08-01T13:37:33.541Z,28.94
2022-08-01T13:40:01.929Z,28.85
2022-08-01T13:42:29.427Z,28.88
2022-08-01T13:44:56.852Z,29.10
2022-08-01T13:47:32.046Z,29.20
2022-08-01T13:50:10.962Z,29.45
2022-08-01T13:52:41.289Z,29.50
2022-08-01T13:55:11.492Z,29.38
2022-08-01T13:57:41.899Z,29.10
2022-08-01T14:00:10.202Z,29.06
2022-08-01T14:02:43.871Z,29.01
2022-08-01T14:05:14.299Z,29.22
2022-08-01T14:07:41.599Z,29.24
2022-08-01T14:10:19.302Z,29.06
2022-08-01T14:12:48.329Z,29.21
2022-08-01T14:15:18.640Z,29.11
2022-08-01T14:18:11.661Z,29.06
2022-08-01T14:20:41.863Z,29.00
2022-08-01T14:23:09.857Z,28.92
2022-08-01T14:26:03.094Z,29.23
2022-08-01T14:28:35.799Z,29.18
2022-08-01T14:31:06.905Z,29.12
2022-08-01T14:33:34.993Z,29.15
2022-08-01T14:36:20.619Z,29.18
2022-08-01T14:38:49.973Z,29.02
2022-08-01T14:41:17.418Z,29.03
2022-08-01T14:43:44.711Z,28.84
2022-08-01T14:46:12.112Z,28.73
2022-08-01T14:48:39.585Z,28.70
2022-08-01T14:51:07.026Z,28.73
2022-08-01T14:53:36.049Z,28.68
2022-08-01T14:56:04.535Z,28.77
2022-08-01T14:58:31.917Z,28.69
2022-08-01T15:00:59.691Z,28.61
2022-08-01T15:03:27.507Z,28.48
2022-08-01T15:06:00.707Z,28.58
2022-08-01T15:08:31.176Z,28.38
2022-08-01T15:11:02.728Z,28.36
2022-08-01T15:13:30.124Z,28.37
2022-08-01T15:16:00.193Z,28.22
2022-08-01T15:18:29.033Z,28.27
2022-08-01T15:20:56.546Z,28.39
2022-08-01T15:23:23.914Z,28.27
2022-08-01T15:25:51.120Z,28.21
2022-08-01T15:28:18.392Z,28.14
2022-08-01T15:30:45.746Z,28.20
2022-08-01T15:33:13.076Z,28.23
2022-08-01T15:35:43.415Z,28.30
2022-08-01T15:38:11.270Z,28.35
2022-08-01T15:40:38.596Z,28.35
2022-08-01T15:43:05.848Z,28.31
2022-08-01T15:45:52.846Z,28.22
2022-08-01T15:48:22.882Z,28.12
2022-08-01T15:50:50.481Z,28.20
2022-08-01T15:53:17.778Z,28.10
2022-08-01T15:55:52.111Z,28.13
2022-08-01T15:58:20.542Z,28.16
2022-08-01T16:00:47.819Z,28.11
2022-08-01T16:03:15.107Z,28.08
2022-08-01T16:05:44.167Z,28.07
2022-08-01T16:08:12.712Z,28.01
2022-08-01T16:10:40.130Z,28.10
2022-08-01T16:13:10.665Z,28.09
2022-08-01T16:15:38.429Z,27.95
2022-08-01T16:18:06.665Z,28.06
2022-08-01T16:20:42.803Z,27.95
2022-08-01T16:23:13.390Z,28.05
2022-08-01T16:25:40.752Z,27.91
2022-08-01T16:28:08.432Z,28.00
2022-08-01T16:30:39.254Z,28.13
2022-08-01T16:33:45.237Z,28.04
2022-08-01T16:36:07.190Z,28.02
2022-08-01T16:38:37.368Z,27.95
2022-08-01T16:41:04.638Z,27.81
2022-08-01T16:43:53.422Z,27.91
2022-08-01T16:46:25.390Z,27.73
2022-08-01T16:48:53.697Z,27.76
2022-08-01T16:51:23.847Z,27.73
2022-08-01T16:53:51.173Z,27.63
2022-08-01T16:56:18.389Z,27.60
2022-08-01T16:58:45.700Z,27.55
2022-08-01T17:01:58.787Z,27.55
2022-08-01T17:04:02.475Z,27.55
2022-08-01T17:06:30.124Z,27.42
2022-08-01T17:09:00.718Z,27.50
2022-08-01T17:11:28.017Z,27.46
2022-08-01T17:13:55.317Z,27.35
2022-08-01T17:16:24.564Z,27.35
2022-08-01T17:18:55.362Z,27.36
2022-08-01T17:21:22.759Z,27.36
2022-08-01T17:23:52.621Z,27.28
2022-08-01T17:26:19.972Z,27.27
2022-08-01T17:28:50.269Z,27.24
2022-08-01T17:31:21.159Z,27.12
2022-08-01T17:33:54.802Z,27.14
2022-08-01T17:36:26.701Z,27.10
2022-08-01T17:38:54.149Z,27.08
2022-08-01T17:41:21.470Z,27.03
2022-08-01T17:43:48.783Z,27.04
2022-08-01T17:46:22.194Z,27.02
2022-08-01T17:48:50.091Z,26.91
2022-08-01T17:51:23.261Z,26.86
2022-08-01T17:53:58.164Z,26.79
2022-08-01T17:56:29.083Z,26.74
2022-08-01T17:59:02.467Z,26.77
2022-08-01T18:01:32.854Z,26.72
2022-08-01T18:04:04.900Z,26.79
2022-08-01T18:06:35.804Z,26.73
2022-08-01T18:09:20.427Z,26.76
2022-08-01T18:12:02.062Z,26.77
2022-08-01T18:14:40.546Z,26.75
2022-08-01T18:17:20.072Z,26.76
2022-08-01T18:19:47.332Z,26.73
2022-08-01T18:22:31.583Z,26.63
2022-08-01T18:25:08.998Z,26.70
2022-08-01T18:28:25.607Z,26.56
2022-08-01T18:30:31.292Z,26.51
2022-08-01T18:33:03.222Z,26.52
2022-08-01T18:35:52.557Z,26.44
2022-08-01T18:38:25.295Z,26.39
2022-08-01T18:40:56.362Z,26.40
2022-08-01T18:43:27.325Z,26.28
2022-08-01T18:45:58.413Z,26.32
2022-08-01T18:48:26.274Z,26.25
2022-08-01T18:50:53.538Z,26.27
2022-08-01T18:53:29.847Z,26.23
2022-08-01T18:56:10.272Z,26.27
2022-08-01T18:58:43.333Z,26.25
2022-08-01T19:01:19.262Z,26.19
2022-08-01T19:03:47.427Z,26.25
2022-08-01T19:06:20.220Z,26.25
2022-08-01T19:08:57.055Z,26.18
2022-08-01T19:11:29.444Z,26.11
2022-08-01T19:14:05.595Z,26.15
2022-08-01T19:16:36.461Z,26.05
2022-08-01T19:19:07.608Z,26.21
2022-08-01T19:21:35.993Z,26.16
2022-08-01T19:24:06.861Z,26.14
2022-08-01T19:26:37.895Z,26.09
2022-08-01T19:29:15.231Z,26.11
2022-08-01T19:31:49.322Z,25.98
2022-08-01T19:34:26.814Z,25.79
2022-08-01T19:36:58.507Z,25.53
2022-08-01T19:39:26.779Z,25.72
2022-08-01T19:41:57.816Z,25.80
2022-08-01T19:44:26.331Z,25.86
2022-08-01T19:46:53.666Z,25.89
2022-08-01T19:49:22.179Z,25.89
2022-08-01T19:51:55.283Z,25.81
2022-08-01T19:54:25.824Z,25.81
2022-08-01T19:56:53.871Z,25.95
2022-08-01T19:59:22.542Z,25.82
2022-08-01T20:01:51.075Z,25.94
2022-08-01T20:04:18.961Z,25.76
2022-08-01T20:06:46.872Z,25.28
2022-08-01T20:09:14.922Z,25.32
2022-08-01T20:11:46.459Z,24.78
2022-08-01T20:14:16.921Z,24.55
2022-08-01T20:16:44.636Z,24.23
2022-08-01T20:19:12.295Z,24.09
2022-08-01T20:21:44.967Z,24.01
2022-08-01T20:24:35.273Z,24.02
2022-08-01T20:27:08.238Z,24.06
2022-08-01T20:29:36.307Z,24.03
2022-08-01T20:32:04.061Z,23.94
2022-08-01T20:34:35.032Z,23.92
2022-08-01T20:37:02.481Z,23.89
2022-08-01T20:39:34.231Z,23.90
2022-08-01T20:42:03.556Z,23.85
2022-08-01T20:44:33.296Z,23.82
2022-08-01T20:47:03.174Z,23.62
2022-08-01T20:49:31.345Z,23.75
2022-08-01T20:51:58.891Z,23.72
2022-08-01T20:54:26.288Z,23.75
2022-08-01T20:57:00.522Z,23.74
2022-08-01T20:59:39.919Z,23.73
2022-08-01T21:02:26.084Z,23.81
2022-08-01T21:04:57.820Z,23.73
2022-08-01T21:07:27.965Z,23.81
2022-08-01T21:10:03.499Z,23.67
2022-08-01T21:12:42.697Z,23.56
2022-08-01T21:15:22.843Z,23.38
2022-08-01T21:17:55.645Z,23.27
2022-08-01T21:20:26.890Z,23.21
2022-08-01T21:23:13.901Z,23.17
2022-08-01T21:25:41.790Z,23.23
2022-08-01T21:28:12.015Z,23.11
2022-08-01T21:30:40.189Z,23.16
2022-08-01T21:33:10.414Z,23.20
2022-08-01T21:35:38.577Z,23.13
2022-08-01T21:38:06.233Z,23.07
2022-08-01T21:40:34.505Z,22.89
2022-08-01T21:43:02.405Z,22.76
2022-08-01T21:45:29.993Z,22.91
2022-08-01T21:47:58.273Z,22.95
2022-08-01T21:50:25.571Z,22.90
2022-08-01T21:53:05.218Z,22.75
2022-08-01T21:55:36.403Z,22.70
2022-08-01T21:58:06.620Z,22.64
2022-08-01T22:00:36.429Z,22.59
2022-08-01T22:03:22.627Z,22.42
2022-08-01T22:05:52.402Z,22.32
2022-08-01T22:08:43.134Z,22.28
2022-08-01T22:11:13.330Z,22.16
2022-08-01T22:13:40.694Z,22.20
2022-08-01T22:16:09.999Z,22.05
2022-08-01T22:18:38.279Z,22.04
2022-08-01T22:21:05.535Z,21.84
2022-08-01T22:23:37.125Z,22.01
2022-08-01T22:26:08.046Z,21.97
2022-08-01T22:28:35.902Z,21.91
2022-08-01T22:31:04.025Z,21.79
2022-08-01T22:33:34.111Z,21.70
2022-08-01T22:36:02.557Z,21.65
2022-08-01T22:38:29.900Z,21.77
2022-08-01T22:41:16.130Z,21.70
2022-08-01T22:43:59.912Z,21.64
2022-08-01T22:46:48.189Z,21.71
2022-08-01T22:49:33.836Z,21.78
2022-08-01T22:52:10.415Z,21.84
2022-08-01T22:54:40.909Z,21.71
2022-08-01T22:57:11.332Z,21.74
2022-08-01T22:59:43.387Z,21.68
2022-08-01T23:02:14.891Z,21.70
2022-08-01T23:04:46.791Z,21.73
2022-08-01T23:07:23.502Z,21.61
2022-08-01T23:09:54.199Z,21.63
2022-08-01T23:12:26.564Z,21.59
2022-08-01T23:14:54.985Z,21.59
2022-08-01T23:17:28.229Z,21.48
2022-08-01T23:19:57.527Z,21.57
2022-08-01T23:22:27.397Z,21.45
2022-08-01T23:25:05.187Z,21.41
2022-08-01T23:27:55.878Z,21.32
2022-08-01T23:30:26.935Z,21.34
2022-08-01T23:32:54.837Z,21.21
2022-08-01T23:35:24.871Z,21.22
2022-08-01T23:37:52.741Z,21.23
2022-08-01T23:40:20.086Z,21.10
2022-08-01T23:42:47.385Z,21.05
2022-08-01T23:45:14.754Z,21.03
2022-08-01T23:47:42.001Z,20.69
2022-08-01T23:50:09.624Z,20.82
2022-08-01T23:52:48.435Z,20.69
2022-08-01T23:55:17.972Z,20.78
2022-08-01T23:57:45.609Z,20.76
